Time;durP1;ratioP1;P1;durP2;ratioP2;P2;SDS_P1;SDS_P2;PMS_P1;PMS_P2;Temp;Humidity;BMP_temperature;BMP_pressure;BME280_temperature;BME280_humidity;BME280_pressure;Samples;Min_cycle;Max_cycle;Signal;HPM_P1;HPM_P2
2021/03/01 00:00:33;;;;;;;;;;;;;;;20.64;53.52;103143.31;2091047;28;1246;-84
2021/03/01 00:01:34;;;;;;;;;;;;;;;20.63;53.65;103141.63;2089934;28;1810;-83
2021/03/01 00:02:35;;;;;;;;;;;;;;;20.64;53.66;103141.31;2087260;28;1568;-83
2021/03/01 00:03:36;;;;;;;;;;;;;;;20.63;53.69;103138.78;2090245;28;2691;-83
2021/03/01 00:04:36;;;;;;;;;;;;;;;20.64;53.60;103141.31;2090060;28;2187;-82
2021/03/01 00:05:37;;;;;;;;;;;;;;;20.63;53.46;103145.31;2086549;28;1716;-80
2021/03/01 00:06:39;;;;;;;;;;;;;;;20.63;53.60;103151.00;2083817;28;1829;-79
2021/03/01 00:07:39;;;;;;;;;;;;;;;20.63;53.52;103144.47;2089854;28;1781;-78
2021/03/01 00:08:40;;;;;;;;;;;;;;;20.63;53.58;103153.84;2089822;28;1207;-78
2021/03/01 00:09:41;;;;;;;;;;;;;;;20.63;53.68;103145.31;2089411;28;1910;-86
2021/03/01 00:10:42;;;;;;;;;;;;;;;20.63;53.52;103159.53;2089549;28;1818;-86
2021/03/01 00:11:43;;;;;;;;;;;;;;;20.65;53.76;103159.25;2089511;28;1208;-78
2021/03/01 00:12:43;;;;;;;;;;;;;;;20.65;53.79;103154.41;2085428;28;1672;-78
2021/03/01 00:13:44;;;;;;;;;;;;;;;20.65;53.64;103156.41;2089424;28;1507;-79
2021/03/01 00:14:45;;;;;;;;;;;;;;;20.65;53.78;103162.09;2089099;28;1692;-80
2021/03/01 00:15:45;;;;;;;;;;;;;;;20.65;53.82;103156.41;2090202;28;1849;-80
2021/03/01 00:16:47;;;;;;;;;;;;;;;20.64;53.80;103163.22;2089418;28;1893;-80
2021/03/01 00:17:47;;;;;;;;;;;;;;;20.65;53.85;103164.94;2089441;28;1914;-81
2021/03/01 00:18:49;;;;;;;;;;;;;;;20.63;53.81;103168.06;2090582;28;1173;-85
2021/03/01 00:19:49;;;;;;;;;;;;;;;20.64;53.81;103161.22;2088844;28;1887;-85
2021/03/01 00:20:50;;;;;;;;;;;;;;;20.63;53.73;103170.91;2082597;28;1037;-84
2021/03/01 00:21:51;;;;;;;;;;;;;;;20.63;53.74;103170.91;2086122;28;1226;-80
2021/03/01 00:22:52;;;;;;;;;;;;;;;20.63;53.81;103173.75;2083287;28;1719;-79
2021/03/01 00:23:53;;;;;;;;;;;;;;;20.64;53.77;103174.59;2089809;28;1726;-79
2021/03/01 00:24:53;;;;;;;;;;;;;;;20.65;53.80;103173.47;2089886;28;1658;-79
2021/03/01 00:25:54;;;;;;;;;;;;;;;20.63;53.83;103173.75;2088441;28;1595;-79
2021/03/01 00:26:55;;;;;;;;;;;;;;;20.64;53.77;103181.13;2090316;28;1491;-80
2021/03/01 00:27:55;;;;;;;;;;;;;;;20.64;53.90;103183.97;2089750;28;2054;-80
2021/03/01 00:28:56;;;;;;;;;;;;;;;20.65;53.91;103179.16;2088985;28;1176;-80
2021/03/01 00:29:57;;;;;;;;;;;;;;;20.64;53.71;103180.28;2083219;28;2538;-81
2021/03/01 00:30:58;;;;;;;;;;;;;;;20.64;53.76;103183.97;2088297;28;1058;-80
2021/03/01 00:31:58;;;;;;;;;;;;;;;20.63;53.81;103176.59;2089771;28;1084;-81
2021/03/01 00:33:00;;;;;;;;;;;;;;;20.64;53.86;103183.13;2087711;28;1731;-80
2021/03/01 00:34:01;;;;;;;;;;;;;;;20.65;53.80;103184.84;2090104;28;1136;-80
2021/03/01 00:35:01;;;;;;;;;;;;;;;20.64;53.80;103183.13;2089342;28;1129;-81
2021/03/01 00:36:02;;;;;;;;;;;;;;;20.64;53.84;103183.13;2087936;28;1702;-82
2021/03/01 00:37:03;;;;;;;;;;;;;;;20.64;53.91;103188.81;2087480;28;1666;-81
2021/03/01 00:38:04;;;;;;;;;;;;;;;20.64;53.92;103192.50;2088368;28;1975;-81
2021/03/01 00:39:04;;;;;;;;;;;;;;;20.65;53.83;103187.69;2088181;28;1982;-82
2021/03/01 00:40:05;;;;;;;;;;;;;;;20.64;53.94;103185.97;2089145;28;1184;-81
2021/03/01 00:41:06;;;;;;;;;;;;;;;20.64;53.90;103191.66;2087918;28;1665;-83
2021/03/01 00:42:07;;;;;;;;;;;;;;;20.64;53.80;103186.81;2086392;28;1117;-83
2021/03/01 00:43:08;;;;;;;;;;;;;;;20.63;53.73;103185.13;2089094;28;1731;-82
2021/03/01 00:44:08;;;;;;;;;;;;;;;20.62;53.68;103186.28;2089728;28;1749;-83
2021/03/01 00:45:10;;;;;;;;;;;;;;;20.63;53.68;103178.59;2085311;28;1089;-83
2021/03/01 00:46:11;;;;;;;;;;;;;;;20.63;53.66;103182.28;2082082;28;1141;-79
2021/03/01 00:47:12;;;;;;;;;;;;;;;20.64;53.73;103180.28;2090241;28;1043;-79
2021/03/01 00:48:13;;;;;;;;;;;;;;;20.63;53.67;103189.97;2088290;28;1799;-79
2021/03/01 00:49:14;;;;;;;;;;;;;;;20.63;53.83;103195.66;2090018;28;1040;-82
2021/03/01 00:50:15;;;;;;;;;;;;;;;20.63;53.75;103192.81;2080789;28;1343;-81
2021/03/01 00:51:16;;;;;;;;;;;;;;;20.64;53.69;103191.66;2074435;28;1212;-79
2021/03/01 00:52:16;;;;;;;;;;;;;;;20.64;53.62;103197.34;2089551;28;1092;-78
2021/03/01 00:53:17;;;;;;;;;;;;;;;20.63;53.73;103196.50;2087854;28;1602;-78
2021/03/01 00:54:18;;;;;;;;;;;;;;;20.63;53.77;103185.13;2085709;28;1590;-79
2021/03/01 00:55:19;;;;;;;;;;;;;;;20.63;53.69;103193.66;2089719;28;1040;-78
2021/03/01 00:56:19;;;;;;;;;;;;;;;20.62;53.69;103194.81;2087549;28;1151;-81
2021/03/01 00:57:20;;;;;;;;;;;;;;;20.63;53.70;103192.81;2087036;28;1039;-79
2021/03/01 00:58:21;;;;;;;;;;;;;;;20.63;53.78;103187.97;2088237;28;1918;-78
2021/03/01 00:59:24;;;;;;;;;;;;;;;20.62;53.77;103191.97;2090069;28;1156;-78
2021/03/01 01:00:25;;;;;;;;;;;;;;;20.63;53.83;103193.66;2085865;28;1817;-77
2021/03/01 01:01:26;;;;;;;;;;;;;;;20.63;53.84;103189.97;2090350;28;1145;-78
2021/03/01 01:02:27;;;;;;;;;;;;;;;20.62;53.68;103197.66;2090153;28;1145;-78
2021/03/01 01:03:28;;;;;;;;;;;;;;;20.62;53.77;103194.81;2088348;28;1669;-80
2021/03/01 01:04:29;;;;;;;;;;;;;;;20.63;53.80;103187.13;2088112;28;1197;-80
2021/03/01 01:05:29;;;;;;;;;;;;;;;20.63;53.84;103187.97;2090447;28;1124;-76
2021/03/01 01:06:31;;;;;;;;;;;;;;;20.62;53.78;103189.13;2088184;28;1823;-75
2021/03/01 01:07:32;;;;;;;;;;;;;;;20.62;53.80;103188.25;2085746;28;1082;-75
2021/03/01 01:08:32;;;;;;;;;;;;;;;20.62;53.86;103193.94;2087793;28;1940;-75
2021/03/01 01:09:33;;;;;;;;;;;;;;;20.62;53.73;103186.28;2085271;28;1946;-80
2021/03/01 01:10:34;;;;;;;;;;;;;;;20.63;53.72;103198.50;2089002;28;1736;-77
2021/03/01 01:11:35;;;;;;;;;;;;;;;20.62;53.72;103191.97;2087969;28;1695;-76
2021/03/01 01:12:36;;;;;;;;;;;;;;;20.63;53.82;103193.66;2088113;28;1585;-79
2021/03/01 01:13:36;;;;;;;;;;;;;;;20.62;53.71;103182.56;2086481;28;1706;-76
2021/03/01 01:14:38;;;;;;;;;;;;;;;20.62;53.73;103183.44;2088456;28;1140;-80
2021/03/01 01:15:39;;;;;;;;;;;;;;;20.62;53.78;103183.44;2087115;28;1045;-81
2021/03/01 01:16:40;;;;;;;;;;;;;;;20.62;53.69;103186.28;2090270;28;1223;-82
2021/03/01 01:17:41;;;;;;;;;;;;;;;20.61;53.84;103183.72;2090023;28;1570;-79
2021/03/01 01:18:42;;;;;;;;;;;;;;;20.62;53.72;103180.59;2084955;28;1906;-79
2021/03/01 01:19:43;;;;;;;;;;;;;;;20.61;53.62;103181.72;2090272;28;1184;-80
2021/03/01 01:20:44;;;;;;;;;;;;;;;20.62;53.67;103182.56;2085385;28;1692;-80
2021/03/01 01:21:45;;;;;;;;;;;;;;;20.61;53.66;103178.88;2085998;28;1619;-80
2021/03/01 01:22:46;;;;;;;;;;;;;;;20.62;53.73;103179.72;2088067;28;1605;-76
2021/03/01 01:23:47;;;;;;;;;;;;;;;20.60;53.80;103174.34;2089709;28;1524;-75
2021/03/01 01:24:47;;;;;;;;;;;;;;;20.61;53.92;103173.19;2089491;28;1708;-76
2021/03/01 01:25:48;;;;;;;;;;;;;;;20.62;53.83;103168.34;2082542;28;976;-76
2021/03/01 01:26:49;;;;;;;;;;;;;;;20.61;53.82;103167.50;2089723;28;1588;-77
2021/03/01 01:27:49;;;;;;;;;;;;;;;20.61;53.88;103170.34;2086205;28;1083;-77
2021/03/01 01:28:50;;;;;;;;;;;;;;;20.61;53.72;103163.81;2088425;28;1814;-77
2021/03/01 01:29:51;;;;;;;;;;;;;;;20.62;53.72;103166.38;2089285;28;2224;-77
2021/03/01 01:30:52;;;;;;;;;;;;;;;20.62;53.70;103159.81;2090142;28;1213;-80
2021/03/01 01:31:52;;;;;;;;;;;;;;;20.61;53.83;103156.13;2089431;28;1691;-80
2021/03/01 01:32:53;;;;;;;;;;;;;;;20.63;53.86;103153.00;2082310;28;1114;-81
2021/03/01 01:33:54;;;;;;;;;;;;;;;20.63;53.75;103155.84;2089143;28;1092;-81
2021/03/01 01:34:55;;;;;;;;;;;;;;;20.62;53.81;103156.97;2089338;28;1771;-80
2021/03/01 01:35:56;;;;;;;;;;;;;;;20.62;53.67;103155.00;2088504;28;1345;-81
2021/03/01 01:36:57;;;;;;;;;;;;;;;20.62;53.81;103152.16;2086393;28;1087;-81
2021/03/01 01:37:57;;;;;;;;;;;;;;;20.61;53.74;103152.44;2082606;28;1976;-87
2021/03/01 01:38:58;;;;;;;;;;;;;;;20.62;53.74;103154.13;2089375;28;1699;-85
2021/03/01 01:39:59;;;;;;;;;;;;;;;20.61;53.79;103153.28;2086752;28;2002;-78
2021/03/01 01:41:00;;;;;;;;;;;;;;;20.61;53.71;103147.59;2083277;28;1134;-78
2021/03/01 01:42:00;;;;;;;;;;;;;;;20.61;53.95;103150.44;2089209;28;1127;-77
2021/03/01 01:43:01;;;;;;;;;;;;;;;20.61;53.73;103139.06;2085477;28;1087;-77
2021/03/01 01:44:02;;;;;;;;;;;;;;;20.61;53.87;103149.59;2088165;28;1875;-78
2021/03/01 01:45:02;;;;;;;;;;;;;;;20.61;53.90;103141.91;2089183;28;1856;-81
2021/03/01 01:46:03;;;;;;;;;;;;;;;20.61;53.90;103150.44;2086963;28;1102;-81
2021/03/01 01:47:04;;;;;;;;;;;;;;;20.62;53.88;103151.28;2087883;28;1110;-81
2021/03/01 01:48:05;;;;;;;;;;;;;;;20.61;53.97;103149.59;2089673;28;1306;-80
2021/03/01 01:49:06;;;;;;;;;;;;;;;20.61;53.85;103139.06;2089594;28;1764;-80
2021/03/01 01:50:07;;;;;;;;;;;;;;;20.61;53.85;103147.59;2088800;28;1660;-78
2021/03/01 01:51:08;;;;;;;;;;;;;;;20.62;53.86;103142.75;2089894;28;1082;-78
2021/03/01 01:52:08;;;;;;;;;;;;;;;20.62;53.89;103143.63;2088198;28;1177;-78
2021/03/01 01:53:09;;;;;;;;;;;;;;;20.63;53.88;103138.78;2089227;28;1554;-77
2021/03/01 01:54:10;;;;;;;;;;;;;;;20.61;53.79;103141.06;2083207;28;2113;-78
2021/03/01 01:55:11;;;;;;;;;;;;;;;20.61;53.74;103150.44;2086606;28;2012;-79
2021/03/01 01:56:11;;;;;;;;;;;;;;;20.62;53.94;103140.78;2089079;28;1729;-79
2021/03/01 01:57:12;;;;;;;;;;;;;;;20.62;53.93;103135.09;2089840;28;1118;-80
2021/03/01 01:58:13;;;;;;;;;;;;;;;20.63;53.87;103153.00;2089515;28;1910;-79
2021/03/01 01:59:14;;;;;;;;;;;;;;;20.62;54.01;103146.47;2089937;28;1121;-79
2021/03/01 02:00:26;;;;;;;;;;;;;;;20.62;53.95;103139.91;2089536;28;1660;-79
2021/03/01 02:01:29;;;;;;;;;;;;;;;20.63;53.87;103135.94;2088485;28;1814;-79
2021/03/01 02:02:30;;;;;;;;;;;;;;;20.62;53.95;103140.78;2089443;28;1077;-79
2021/03/01 02:03:31;;;;;;;;;;;;;;;20.62;53.84;103139.91;2080231;28;1737;-79
2021/03/01 02:04:31;;;;;;;;;;;;;;;20.62;53.87;103139.91;2079843;28;2128;-79
2021/03/01 02:05:32;;;;;;;;;;;;;;;20.62;53.79;103137.06;2089814;28;1577;-79
2021/03/01 02:06:33;;;;;;;;;;;;;;;20.61;54.03;103132.53;2083662;28;1052;-80
2021/03/01 02:07:34;;;;;;;;;;;;;;;20.62;53.82;103134.22;2086346;28;1633;-79
2021/03/01 02:08:35;;;;;;;;;;;;;;;20.62;54.03;103128.53;2088072;28;1700;-79
2021/03/01 02:09:36;;;;;;;;;;;;;;;20.63;53.95;103136.78;2087082;28;1996;-79
2021/03/01 02:10:36;;;;;;;;;;;;;;;20.61;53.82;103136.22;2087061;28;1931;-79
2021/03/01 02:11:37;;;;;;;;;;;;;;;20.62;53.90;103135.09;2088258;28;1100;-79
2021/03/01 02:12:38;;;;;;;;;;;;;;;20.61;53.95;103139.06;2087752;28;1718;-79
2021/03/01 02:13:38;;;;;;;;;;;;;;;20.62;53.96;103137.06;2089250;28;1835;-78
2021/03/01 02:14:39;;;;;;;;;;;;;;;20.62;53.91;103137.06;2086805;28;1029;-78
2021/03/01 02:15:40;;;;;;;;;;;;;;;20.61;53.89;103129.69;2088624;28;1952;-79
2021/03/01 02:16:42;;;;;;;;;;;;;;;20.62;53.86;103134.22;2089250;28;1736;-79
2021/03/01 02:17:43;;;;;;;;;;;;;;;20.62;53.78;103139.91;2080852;28;2296;-81
2021/03/01 02:18:44;;;;;;;;;;;;;;;20.62;53.93;103134.22;2078432;28;2008;-78
2021/03/01 02:19:45;;;;;;;;;;;;;;;20.61;53.94;103133.38;2084821;28;1919;-82
2021/03/01 02:20:46;;;;;;;;;;;;;;;20.61;53.83;103133.38;2088051;28;1711;-76
2021/03/01 02:21:47;;;;;;;;;;;;;;;20.62;53.89;103128.53;2088971;28;1653;-77
2021/03/01 02:22:47;;;;;;;;;;;;;;;20.61;53.98;103126.84;2084824;28;1274;-77
2021/03/01 02:23:48;;;;;;;;;;;;;;;20.62;54.15;103125.69;2091391;28;1533;-76
2021/03/01 02:24:49;;;;;;;;;;;;;;;20.61;54.03;103130.53;2091672;28;1207;-76
2021/03/01 02:25:50;;;;;;;;;;;;;;;20.61;53.92;103132.53;2087716;28;1849;-77
2021/03/01 02:26:51;;;;;;;;;;;;;;;20.61;54.08;103124.84;2088861;28;1530;-77
2021/03/01 02:27:51;;;;;;;;;;;;;;;20.62;53.96;103135.09;2089139;28;1184;-77
2021/03/01 02:28:52;;;;;;;;;;;;;;;20.61;54.11;103124.84;2089403;28;1089;-77
2021/03/01 02:29:53;;;;;;;;;;;;;;;20.62;54.00;103125.69;2087730;28;2065;-77
2021/03/01 02:30:53;;;;;;;;;;;;;;;20.62;54.06;103122.84;2088649;28;1616;-76
2021/03/01 02:31:54;;;;;;;;;;;;;;;20.61;53.96;103127.69;2091094;28;1096;-76
2021/03/01 02:32:55;;;;;;;;;;;;;;;20.61;54.11;103124.00;2088774;28;1243;-76
2021/03/01 02:33:57;;;;;;;;;;;;;;;20.62;54.05;103131.38;2090763;28;1682;-76
2021/03/01 02:34:58;;;;;;;;;;;;;;;20.61;53.93;103130.53;2089325;28;1686;-77
2021/03/01 02:35:59;;;;;;;;;;;;;;;20.62;54.12;103128.53;2089037;28;1558;-77
2021/03/01 02:37:00;;;;;;;;;;;;;;;20.61;54.00;103133.38;2087627;28;1135;-77
2021/03/01 02:38:01;;;;;;;;;;;;;;;20.62;54.02;103128.53;2085407;28;1297;-76
2021/03/01 02:39:02;;;;;;;;;;;;;;;20.62;54.10;103134.22;2091129;28;1914;-77
2021/03/01 02:40:02;;;;;;;;;;;;;;;20.61;53.99;103130.53;2091009;28;1534;-76
2021/03/01 02:41:03;;;;;;;;;;;;;;;20.61;54.03;103126.84;2090595;28;1821;-77
2021/03/01 02:42:04;;;;;;;;;;;;;;;20.61;53.94;103133.38;2090045;28;1160;-77
2021/03/01 02:43:05;;;;;;;;;;;;;;;20.62;54.11;103122.84;2086980;28;1850;-79
2021/03/01 02:44:05;;;;;;;;;;;;;;;20.61;53.94;103133.38;2082961;28;1364;-78
2021/03/01 02:45:06;;;;;;;;;;;;;;;20.61;54.03;103126.84;2088622;28;1776;-80
2021/03/01 02:46:08;;;;;;;;;;;;;;;20.61;54.07;103124.00;2089781;28;1660;-80
2021/03/01 02:47:09;;;;;;;;;;;;;;;20.60;54.12;103125.16;2089690;28;1542;-80
2021/03/01 02:48:10;;;;;;;;;;;;;;;20.61;54.10;103127.69;2089813;28;1151;-80
2021/03/01 02:49:11;;;;;;;;;;;;;;;20.61;54.26;103126.84;2084137;28;1090;-81
2021/03/01 02:50:12;;;;;;;;;;;;;;;20.61;54.02;103136.22;2087601;28;1700;-80
2021/03/01 02:51:12;;;;;;;;;;;;;;;20.61;53.94;103127.69;2088321;28;1825;-80
2021/03/01 02:52:13;;;;;;;;;;;;;;;20.61;54.10;103126.84;2090746;28;957;-80
2021/03/01 02:53:14;;;;;;;;;;;;;;;20.61;54.18;103126.84;2090827;28;1068;-80
2021/03/01 02:54:14;;;;;;;;;;;;;;;20.62;54.12;103131.38;2089698;28;1188;-79
2021/03/01 02:55:15;;;;;;;;;;;;;;;20.61;54.12;103124.00;2087716;28;1751;-80
2021/03/01 02:56:16;;;;;;;;;;;;;;;20.62;54.15;103128.53;2090332;28;1259;-79
2021/03/01 02:57:17;;;;;;;;;;;;;;;20.61;54.06;103130.53;2086635;28;1457;-79
2021/03/01 02:58:17;;;;;;;;;;;;;;;20.61;54.06;103132.53;2090973;28;1917;-79
2021/03/01 02:59:18;;;;;;;;;;;;;;;20.61;54.15;103129.69;2090748;28;1762;-79
2021/03/01 03:00:20;;;;;;;;;;;;;;;20.61;54.16;103127.69;2090794;28;1623;-75
2021/03/01 03:01:21;;;;;;;;;;;;;;;20.62;54.09;103128.53;2090170;28;1821;-77
2021/03/01 03:02:22;;;;;;;;;;;;;;;20.62;54.06;103131.38;2090660;28;1811;-76
2021/03/01 03:03:23;;;;;;;;;;;;;;;20.63;54.02;103135.94;2089962;28;1031;-74
2021/03/01 03:04:24;;;;;;;;;;;;;;;20.62;54.15;103128.53;2090477;28;1192;-74
2021/03/01 03:05:25;;;;;;;;;;;;;;;20.62;54.21;103128.53;2089785;28;1679;-74
2021/03/01 03:06:25;;;;;;;;;;;;;;;20.63;54.11;103130.25;2085323;28;1784;-75
2021/03/01 03:07:26;;;;;;;;;;;;;;;20.61;53.98;103132.53;2090576;28;1898;-74
2021/03/01 03:08:27;;;;;;;;;;;;;;;20.61;54.21;103132.53;2090924;28;1133;-77
2021/03/01 03:09:27;;;;;;;;;;;;;;;20.61;54.17;103139.06;2089935;28;1953;-77
2021/03/01 03:10:28;;;;;;;;;;;;;;;20.62;54.00;103137.06;2086154;28;1659;-76
2021/03/01 03:11:29;;;;;;;;;;;;;;;20.62;54.17;103134.22;2086864;28;1727;-76
2021/03/01 03:12:30;;;;;;;;;;;;;;;20.62;54.04;103134.22;2090419;28;996;-76
2021/03/01 03:13:31;;;;;;;;;;;;;;;20.61;54.16;103132.53;2090688;28;1314;-76
2021/03/01 03:14:31;;;;;;;;;;;;;;;20.61;54.03;103132.53;2090477;28;1445;-76
2021/03/01 03:15:32;;;;;;;;;;;;;;;20.61;54.15;103132.53;2090016;28;1972;-76
2021/03/01 03:16:33;;;;;;;;;;;;;;;20.62;54.15;103122.84;2090613;28;1156;-77
2021/03/01 03:17:34;;;;;;;;;;;;;;;20.62;54.14;103135.09;2084189;28;1137;-77
2021/03/01 03:18:35;;;;;;;;;;;;;;;20.61;54.14;103132.53;2084730;28;1918;-77
2021/03/01 03:19:36;;;;;;;;;;;;;;;20.62;54.08;103139.91;2087576;28;1296;-77
2021/03/01 03:20:36;;;;;;;;;;;;;;;20.62;54.02;103134.22;2087084;28;2077;-77
2021/03/01 03:21:37;;;;;;;;;;;;;;;20.62;54.15;103131.38;2090431;28;1642;-77
2021/03/01 03:22:38;;;;;;;;;;;;;;;20.61;53.98;103127.69;2089967;28;1807;-77
2021/03/01 03:23:39;;;;;;;;;;;;;;;20.62;54.14;103128.53;2088303;28;1521;-77
2021/03/01 03:24:39;;;;;;;;;;;;;;;20.62;54.12;103134.22;2087500;28;1332;-77
2021/03/01 03:25:40;;;;;;;;;;;;;;;20.62;54.00;103137.06;2089252;28;1779;-77
2021/03/01 03:26:42;;;;;;;;;;;;;;;20.61;54.00;103136.22;2090403;28;1452;-77
2021/03/01 03:27:42;;;;;;;;;;;;;;;20.61;54.04;103139.06;2087405;28;1098;-77
2021/03/01 03:28:43;;;;;;;;;;;;;;;20.62;54.05;103139.91;2082443;28;1250;-77
2021/03/01 03:29:44;;;;;;;;;;;;;;;20.62;54.06;103134.22;2090278;28;2378;-77
2021/03/01 03:30:45;;;;;;;;;;;;;;;20.61;54.13;103138.22;2088269;28;1666;-77
2021/03/01 03:31:45;;;;;;;;;;;;;;;20.61;53.95;103133.38;2089394;28;1679;-77
2021/03/01 03:32:46;;;;;;;;;;;;;;;20.61;53.99;103138.22;2090896;28;1146;-77
2021/03/01 03:33:47;;;;;;;;;;;;;;;20.61;53.98;103135.38;2090655;28;1116;-77
2021/03/01 03:34:48;;;;;;;;;;;;;;;20.61;54.11;103138.22;2084625;28;1630;-76
2021/03/01 03:35:49;;;;;;;;;;;;;;;20.61;53.97;103144.75;2089982;28;1772;-76
2021/03/01 03:36:49;;;;;;;;;;;;;;;20.61;53.93;103139.06;2085198;28;1338;-78
2021/03/01 03:37:50;;;;;;;;;;;;;;;20.60;53.96;103145.06;2090488;28;1076;-78
2021/03/01 03:38:51;;;;;;;;;;;;;;;20.60;54.06;103145.91;2090217;28;1934;-78
2021/03/01 03:39:52;;;;;;;;;;;;;;;20.61;53.88;103149.59;2087591;28;1220;-77
2021/03/01 03:40:52;;;;;;;;;;;;;;;20.60;54.02;103151.59;2089062;28;1684;-78
2021/03/01 03:41:53;;;;;;;;;;;;;;;20.61;53.93;103149.59;2090117;28;1635;-78
2021/03/01 03:42:54;;;;;;;;;;;;;;;20.61;53.95;103149.59;2090252;28;1076;-78
2021/03/01 03:43:54;;;;;;;;;;;;;;;20.61;54.00;103149.59;2089809;28;1728;-78
2021/03/01 03:44:55;;;;;;;;;;;;;;;20.61;53.95;103149.59;2089998;28;1629;-78
2021/03/01 03:45:56;;;;;;;;;;;;;;;20.61;53.89;103150.44;2089824;28;1546;-78
2021/03/01 03:46:58;;;;;;;;;;;;;;;20.61;54.03;103152.44;2090584;28;1102;-78
2021/03/01 03:47:58;;;;;;;;;;;;;;;20.60;53.95;103148.75;2086903;28;1118;-78
2021/03/01 03:49:00;;;;;;;;;;;;;;;20.60;54.07;103145.91;2089962;28;1684;-78
2021/03/01 03:50:00;;;;;;;;;;;;;;;20.60;53.88;103148.75;2090223;28;1074;-78
2021/03/01 03:51:01;;;;;;;;;;;;;;;20.60;53.87;103147.91;2090083;28;1745;-78
2021/03/01 03:52:02;;;;;;;;;;;;;;;20.60;53.95;103147.91;2084440;28;1954;-78
2021/03/01 03:53:02;;;;;;;;;;;;;;;20.61;53.84;103149.59;2089096;28;1987;-78
2021/03/01 03:54:03;;;;;;;;;;;;;;;20.61;53.87;103149.59;2086332;28;1011;-78
2021/03/01 03:55:04;;;;;;;;;;;;;;;20.61;54.09;103152.44;2088563;28;1103;-79
2021/03/01 03:56:05;;;;;;;;;;;;;;;20.61;53.92;103149.59;2090230;28;2308;-78
2021/03/01 03:57:06;;;;;;;;;;;;;;;20.61;53.99;103143.91;2090298;28;1803;-78
2021/03/01 03:58:06;;;;;;;;;;;;;;;20.60;53.83;103140.22;2084040;28;1114;-78
2021/03/01 03:59:07;;;;;;;;;;;;;;;20.60;53.99;103145.06;2088044;28;1910;-78
2021/03/01 04:00:08;;;;;;;;;;;;;;;20.60;53.98;103145.91;2087083;28;1103;-78
2021/03/01 04:01:08;;;;;;;;;;;;;;;20.61;54.03;103143.91;2089402;28;1723;-78
2021/03/01 04:02:09;;;;;;;;;;;;;;;20.61;53.95;103141.06;2089952;28;1988;-78
2021/03/01 04:03:10;;;;;;;;;;;;;;;20.61;53.97;103152.44;2089430;28;1673;-78
2021/03/01 04:04:11;;;;;;;;;;;;;;;20.60;53.98;103148.75;2090290;28;1075;-78
2021/03/01 04:05:13;;;;;;;;;;;;;;;20.61;54.02;103147.59;2089021;28;1278;-78
2021/03/01 04:06:14;;;;;;;;;;;;;;;20.61;53.86;103150.44;2089815;28;1826;-77
2021/03/01 04:07:15;;;;;;;;;;;;;;;20.61;53.84;103149.59;2087742;28;1993;-78
2021/03/01 04:08:16;;;;;;;;;;;;;;;20.61;53.82;103155.28;2089134;28;1057;-78
2021/03/01 04:09:16;;;;;;;;;;;;;;;20.60;53.98;103159.28;2090486;28;1071;-81
2021/03/01 04:10:17;;;;;;;;;;;;;;;20.61;54.09;103158.13;2080890;28;2302;-82
2021/03/01 04:11:18;;;;;;;;;;;;;;;20.60;53.88;103157.28;2080534;28;1762;-78
2021/03/01 04:12:18;;;;;;;;;;;;;;;20.61;53.92;103163.81;2088665;28;1803;-78
2021/03/01 04:13:19;;;;;;;;;;;;;;;20.61;54.00;103160.97;2088651;28;1829;-78
2021/03/01 04:14:20;;;;;;;;;;;;;;;20.61;53.89;103158.13;2088707;28;1123;-78
2021/03/01 04:15:21;;;;;;;;;;;;;;;20.61;53.92;103158.13;2090159;28;1631;-80
2021/03/01 04:16:21;;;;;;;;;;;;;;;20.62;54.05;103165.50;2089272;28;1626;-77
2021/03/01 04:17:23;;;;;;;;;;;;;;;20.61;53.96;103161.81;2088508;28;1309;-76
2021/03/01 04:18:23;;;;;;;;;;;;;;;20.60;54.08;103162.97;2090247;28;1065;-76
2021/03/01 04:19:25;;;;;;;;;;;;;;;20.62;54.02;103166.38;2087200;28;1910;-77
2021/03/01 04:20:25;;;;;;;;;;;;;;;20.61;53.99;103160.97;2085588;28;1736;-76
2021/03/01 04:21:26;;;;;;;;;;;;;;;20.62;53.95;103162.66;2084171;28;1113;-78
2021/03/01 04:22:27;;;;;;;;;;;;;;;20.61;54.00;103160.97;2087802;28;1614;-77
2021/03/01 04:23:28;;;;;;;;;;;;;;;20.61;54.09;103167.50;2089466;28;1752;-77
2021/03/01 04:24:28;;;;;;;;;;;;;;;20.61;53.99;103166.66;2089307;28;1536;-78
2021/03/01 04:25:29;;;;;;;;;;;;;;;20.61;54.04;103166.66;2089855;28;1136;-78
2021/03/01 04:26:30;;;;;;;;;;;;;;;20.61;53.88;103164.66;2090146;28;1659;-78
2021/03/01 04:27:30;;;;;;;;;;;;;;;20.61;54.08;103167.50;2090227;28;1065;-78
2021/03/01 04:28:31;;;;;;;;;;;;;;;20.61;54.09;103164.66;2089763;28;1072;-78
2021/03/01 04:29:32;;;;;;;;;;;;;;;20.61;53.95;103161.81;2088567;28;1528;-78
2021/03/01 04:30:33;;;;;;;;;;;;;;;20.61;53.99;103166.66;2088738;28;2189;-78
2021/03/01 04:31:33;;;;;;;;;;;;;;;20.60;53.92;103162.97;2084836;28;1110;-78
2021/03/01 04:32:34;;;;;;;;;;;;;;;20.62;53.91;103168.34;2089728;28;1571;-78
2021/03/01 04:33:35;;;;;;;;;;;;;;;20.62;54.01;103163.53;2086594;28;1733;-78
2021/03/01 04:34:36;;;;;;;;;;;;;;;20.62;54.07;103162.66;2085311;28;966;-78
2021/03/01 04:35:37;;;;;;;;;;;;;;;20.61;53.92;103155.28;2089344;28;2028;-78
2021/03/01 04:36:39;;;;;;;;;;;;;;;20.61;53.92;103163.81;2088501;28;1683;-78
2021/03/01 04:37:39;;;;;;;;;;;;;;;20.61;53.95;103167.50;2089268;28;1075;-78
2021/03/01 04:38:40;;;;;;;;;;;;;;;20.61;54.06;103166.66;2087629;28;1930;-80
2021/03/01 04:39:41;;;;;;;;;;;;;;;20.60;53.94;103165.81;2089868;28;1687;-85
2021/03/01 04:40:42;;;;;;;;;;;;;;;20.61;53.89;103161.81;2085593;28;1763;-85
2021/03/01 04:41:43;;;;;;;;;;;;;;;20.61;54.08;103163.81;2089269;28;1920;-83
2021/03/01 04:42:44;;;;;;;;;;;;;;;20.60;53.96;103160.13;2084672;28;1564;-81
2021/03/01 04:43:44;;;;;;;;;;;;;;;20.62;53.93;103163.53;2089103;28;1679;-81
2021/03/01 04:44:45;;;;;;;;;;;;;;;20.61;53.98;103166.66;2088218;28;1632;-80
2021/03/01 04:45:46;;;;;;;;;;;;;;;20.61;54.10;103172.34;2084455;28;1027;-81
2021/03/01 04:46:47;;;;;;;;;;;;;;;20.61;53.97;103169.50;2085446;28;1758;-81
2021/03/01 04:47:48;;;;;;;;;;;;;;;20.61;54.07;103170.34;2087765;28;1079;-82
2021/03/01 04:48:49;;;;;;;;;;;;;;;20.62;54.02;103168.34;2089417;28;1688;-82
2021/03/01 04:49:50;;;;;;;;;;;;;;;20.61;53.94;103164.66;2088999;28;1687;-81
2021/03/01 04:50:50;;;;;;;;;;;;;;;20.61;54.00;103163.81;2087120;28;1207;-82
2021/03/01 04:51:51;;;;;;;;;;;;;;;20.62;54.14;103156.97;2084573;28;1152;-82
2021/03/01 04:52:52;;;;;;;;;;;;;;;20.61;54.02;103164.66;2085884;28;1102;-76
2021/03/01 04:53:53;;;;;;;;;;;;;;;20.61;54.09;103166.66;2089471;28;1814;-76
2021/03/01 04:54:53;;;;;;;;;;;;;;;20.62;54.06;103165.50;2089772;28;1679;-76
2021/03/01 04:55:54;;;;;;;;;;;;;;;20.61;54.02;103158.97;2085523;28;1024;-75
2021/03/01 04:56:55;;;;;;;;;;;;;;;20.60;54.17;103160.13;2089628;28;1735;-75
2021/03/01 04:57:56;;;;;;;;;;;;;;;20.61;54.03;103160.97;2085603;28;1653;-75
2021/03/01 04:58:57;;;;;;;;;;;;;;;20.61;54.04;103160.97;2085690;28;1902;-74
2021/03/01 04:59:57;;;;;;;;;;;;;;;20.62;54.05;103162.66;2089435;28;1627;-75
2021/03/01 05:00:58;;;;;;;;;;;;;;;20.61;53.99;103161.81;2084969;28;1047;-75
2021/03/01 05:01:59;;;;;;;;;;;;;;;20.60;54.05;103160.13;2087814;28;1612;-74
2021/03/01 05:03:00;;;;;;;;;;;;;;;20.61;54.12;103160.97;2087221;28;1144;-74
2021/03/01 05:04:01;;;;;;;;;;;;;;;20.60;54.10;103162.97;2086602;28;1856;-74
2021/03/01 05:05:02;;;;;;;;;;;;;;;20.61;54.12;103163.81;2090054;28;1694;-74
2021/03/01 05:06:03;;;;;;;;;;;;;;;20.61;54.12;103163.81;2086633;28;1115;-74
2021/03/01 05:07:03;;;;;;;;;;;;;;;20.61;54.00;103163.81;2088505;28;1643;-74
2021/03/01 05:08:04;;;;;;;;;;;;;;;20.61;54.15;103164.66;2089952;28;1134;-74
2021/03/01 05:09:05;;;;;;;;;;;;;;;20.61;54.15;103164.66;2087623;28;1168;-74
2021/03/01 05:10:06;;;;;;;;;;;;;;;20.62;54.00;103162.66;2089648;28;2226;-74
2021/03/01 05:11:06;;;;;;;;;;;;;;;20.62;54.05;103156.97;2085335;28;1087;-74
2021/03/01 05:12:07;;;;;;;;;;;;;;;20.61;54.14;103161.81;2086364;28;1603;-75
2021/03/01 05:13:08;;;;;;;;;;;;;;;20.60;54.13;103162.97;2089778;28;1954;-74
2021/03/01 05:14:09;;;;;;;;;;;;;;;20.61;54.00;103160.97;2089266;28;1518;-75
2021/03/01 05:15:09;;;;;;;;;;;;;;;20.61;54.09;103163.81;2089292;28;2177;-74
2021/03/01 05:16:10;;;;;;;;;;;;;;;20.62;54.19;103162.66;2085896;28;1110;-74
2021/03/01 05:17:11;;;;;;;;;;;;;;;20.63;54.06;103161.53;2086251;28;1694;-74